Du har inga inställningar för hoppväder.nu

Hoppväder.nu

Senast uppdaterat 09:19

UTC-tid

2021-06-16 kl. 07:19


Sol och måne

Solen går upp 3:43 och går ner 23:18 (beräknade cirkatider)
Nästa fullmåne blir om 8 dagar (2021-06-24)

METAR

ESOE (Örebro)
(29 minuter sedan)
ESOE 160650Z 21008KT CAVOK 14/10 Q1017=



ESOK (Karlstad)
(29 minuter sedan)
ESOK 160650Z 21007KT 180V240 CAVOK 14/11 Q1016=



ESGR (Skövde)
(29 minuter sedan)
ESGR 160650Z AUTO /////KT 9999 NCD 15/09 Q1017=



ESSD (Borlänge)
(29 minuter sedan)
ESSD 160650Z 11006KT 070V130 CAVOK 12/05 Q1016=



ESOW (Västerås)
(29 minuter sedan)
ESOW 160650Z 18006KT 130V200 CAVOK 14/09 Q1016=



TAF

ESOE (Örebro)
(109 minuter sedan)
ESOE 160530Z 1606/1608 23010KT CAVOK=



ESOK (Karlstad)
(109 minuter sedan)
ESOK 160530Z 1606/1615 19008KT CAVOK=



ESGR (Skövde)
ESGR



ESSD (Borlänge)
(55 minuter sedan)
ESSD AMD 160624Z 1606/1615 12007KT CAVOK BECMG 1608/1610 22012KT=



ESOW (Västerås)
(109 minuter sedan)
ESOW 160530Z 1606/1615 23007KT CAVOK=





Kodnycklar till TAF och METAR






LHP

(Örebro är område se32g i Delområde 4)

Översikt

ÖVERSIKT FÖR OMRÅDE se3 UTFÄRDAD 160337

GÄLLANDE DEN 16 JUNI 2021 MELLAN 04 OCH 12 UTC


Väderöversikt

En högtrycksrygg täcker södra Sverige.

Sikt under 5 kilometer eller molnbas under 1000 fot
04-06UTC: Område se31


Måttlig eller svår isbildning
Väntas inte förekomma under perioden

Måttlig eller svår turbulens
Väntas inte förekomma under perioden

Delområde 4

PROGNOS FÖR OMRÅDE se32 UTFÄRDAD 160337
GÄLLANDE DEN 16 JUNI 2021 MELLAN 04 OCH 12 UTC

Måttlig eller svår turbulens
04-12UTC: I hela området: Väntas inte förekomma under perioden

Måttlig eller svår isbildning
04-12UTC: I hela området: Väntas inte förekomma under perioden

Sikt/Väder/Moln
04-12UTC: I hela området: Sikt >8km. Molnbas >2000ft.

Molnöversida
04-12UTC: I hela området: Ingen prognos

CB/TCU Moln
04-12UTC: I hela området: Väntas inte förekomma under perioden

Nollgradersisoterm
04-06UTC: Noll grader FL070 - FL120.
06-08UTC: Noll grader FL070 - > FL125.
08-12UTC: Noll grader FL100 - > FL125.

Vind vid marken
04-06UTC: Område se32i: SV-V/3-13 knop, byar upp till 19 knop.
Område se32g: SV-V/2-5 knop.
Område se32d: SV/0-9 knop, byar upp till 15 knop.
Område se32b: V/2-10 knop, byar upp till 14 knop.
Område se32e: SV-V/0-7 knop, byar upp till 13 knop.
Område se32a: V/0-8 knop, byar upp till 14 knop.
Område se32h: SV/2-10 knop, byar upp till 15 knop.
Område se32j: SV-V/2-13 knop, byar upp till 19 knop.
Område se32f: V/0-5 knop, byar upp till 11 knop.
Område se32c: V/2-8 knop.

06-08UTC: Område se32i: SV-V/3-12 knop, byar upp till 19 knop.
Område se32j: SV-V/3-13 knop, byar upp till 19 knop.
Område se32e: S-SV/2-5 knop, byar upp till 13 knop.
Område se32c: SV/3-7 knop, byar upp till 14 knop.
Område se32h: SV/3-11 knop, byar upp till 16 knop.
Område se32d: SV/3-7 knop, byar upp till 16 knop.
Område se32b: SV/1-8 knop, byar upp till 17 knop.
Område se32a: S-SV/0-9 knop, byar upp till 15 knop.
Område se32f: S/2-5 knop, byar upp till 13 knop.
Område se32g: S-SV/3-5 knop.

08-10UTC: Område se32d: SV/4-10 knop, byar upp till 20 knop.
Område se32g: SV/3-8 knop, byar upp till 18 knop.
Område se32b: S-SV/0-14 knop, byar upp till 20 knop.
Område se32h: SV/4-14 knop, byar upp till 20 knop.
Område se32a: S-SV/2-12 knop, byar upp till 22 knop.
Område se32j: SV-V/4-11 knop, byar upp till 19 knop.
Område se32c: S-SV/3-14 knop, byar upp till 18 knop.
Område se32i: SV-V/4-11 knop, byar upp till 18 knop.
Område se32f,se32e: S-SV/4-9 knop, byar upp till 19 knop.

10-12UTC: Område se32d: SV-V/5-10 knop, byar upp till 22 knop.
Område se32e: SV/4-10 knop, byar upp till 20 knop.
Område se32a: S-SV/4-16 knop, byar upp till 26 knop.
Område se32g: SV/1-11 knop, byar upp till 21 knop.
Område se32j: SV-V/4-10 knop, byar upp till 20 knop.
Område se32b: S/0-18 knop, byar upp till 27 knop.
Område se32h: SV/4-13 knop, byar upp till 21 knop.
Område se32i: SV-V/4-11 knop, byar upp till 20 knop.
Område se32f: SV/4-8 knop, byar upp till 19 knop.
Område se32c: S/0-17 knop, byar upp till 25 knop.


Genomsnittlig vind och temperatur för området
2000ft:
04-06UTC: 220/6kt +10.
06-08UTC: 220/11kt +10.
08-10UTC: 230/11kt +10.
10-12UTC: 240/10kt +12.

FL50:
04-06UTC: 230/12kt +5.
06-08UTC: 250/13kt +5.
08-10UTC: 260/14kt +6.
10-12UTC: 260/13kt +6.

FL100:
04-06UTC: 270/23kt +0.
06-10UTC: 270/24kt +0.
10-12UTC: 280/25kt +1.

Lägsta QNH
1014 hPa.

OBS! endast utbredd måttlig eller svår isbildning och turbulens prognostiseras i LLF.
Avsaknad av isbildning och turbulens i prognosen utesluter inte förekomst av lätt isbildning och turbulens.
För indikation på lätt isbildning, var vänlig kontrollera om prognosen för molntopp ligger högre än nollgradersisotermen.
Förekomst av TCU eller CB medför alltid en risk för måttlig eller svår isbildning och turbulens även om det inte framgår explicit av prognosen.







Spotting

Hur fungerar spotthjälpen och Vindkartan?

Markvind är ca 2-3 m/s.
Vind på 600 m ca 6 m/s.
Vind på 1500 m ca 7 m/s.
Vind på 3000 m ca 12 m/s.
FXB flyger ca 24 m/s över marken på finalen.
Du driver ca 556 m bakåt i frifall. (741 m)
Lämplig spot är 11 sekunder eller 260 m efter gropen.
(19 s eller 450 m)
För små grupper eller ensamhoppare bör man vänta 6-9 sekunder mellan grupperna.
För större grupper bör man vänta 13-15 sekunder mellan grupperna.


Vindkartan

Senast uppdaterad 09:19




All data kommer från LFV.se